createdAt,value
2018-05-04T00:02:31.847Z,41.95
2018-05-04T00:05:05.408Z,41.53
2018-05-04T00:07:42.133Z,41.10
2018-05-04T00:10:19.240Z,41.28
2018-05-04T00:12:55.114Z,41.07
2018-05-04T00:15:28.939Z,40.94
2018-05-04T00:18:02.280Z,41.01
2018-05-04T00:20:40.721Z,40.61
2018-05-04T00:23:14.873Z,40.74
2018-05-04T00:25:51.728Z,41.06
2018-05-04T00:28:27.691Z,41.03
2018-05-04T00:31:06.192Z,40.94
2018-05-04T00:33:44.127Z,40.87
2018-05-04T00:36:21.154Z,41.15
2018-05-04T00:38:59.354Z,41.16
2018-05-04T00:41:34.953Z,41.16
2018-05-04T00:44:10.210Z,41.45
2018-05-04T00:46:44.015Z,41.79
2018-05-04T00:49:17.438Z,41.79
2018-05-04T00:51:51.008Z,42.27
2018-05-04T00:54:28.581Z,42.34
2018-05-04T00:57:03.629Z,42.01
2018-05-04T00:59:39.338Z,42.35
2018-05-04T01:02:14.991Z,42.52
2018-05-04T01:07:29.000Z,43.42
2018-05-04T01:10:02.668Z,42.77
2018-05-04T01:12:36.228Z,42.54
2018-05-04T01:15:09.577Z,42.72
2018-05-04T01:17:43.773Z,42.95
2018-05-04T01:20:18.841Z,42.83
2018-05-04T01:22:57.086Z,42.92
2018-05-04T01:25:30.468Z,42.83
2018-05-04T01:28:06.328Z,42.80
2018-05-04T01:30:39.890Z,43.13
2018-05-04T01:33:16.148Z,43.43
2018-05-04T01:35:49.594Z,43.92
2018-05-04T01:38:26.702Z,44.17
2018-05-04T01:41:00.076Z,43.94
2018-05-04T01:43:33.455Z,43.62
2018-05-04T01:46:09.416Z,43.56
2018-05-04T01:48:42.781Z,44.30
2018-05-04T01:51:16.648Z,45.43
2018-05-04T01:53:50.611Z,44.25
2018-05-04T01:56:24.124Z,44.17
2018-05-04T01:58:59.594Z,44.21
2018-05-04T02:01:34.555Z,44.47
2018-05-04T02:04:08.056Z,44.01
2018-05-04T02:06:43.765Z,44.02
2018-05-04T02:09:17.143Z,45.23
2018-05-04T02:11:52.564Z,45.21
2018-05-04T02:14:25.906Z,44.88
2018-05-04T02:16:59.320Z,45.77
2018-05-04T02:19:33.007Z,45.74
2018-05-04T02:22:08.790Z,45.10
2018-05-04T02:24:45.336Z,45.33
2018-05-04T02:27:23.433Z,45.10
2018-05-04T02:29:58.702Z,44.85
2018-05-04T02:32:34.239Z,45.47
2018-05-04T02:35:07.598Z,45.98
2018-05-04T02:37:44.619Z,45.45
2018-05-04T02:40:18.114Z,45.55
2018-05-04T02:45:20.315Z,45.80
2018-05-04T02:47:55.939Z,45.67
2018-05-04T02:50:29.330Z,45.29
2018-05-04T02:53:05.464Z,45.70
2018-05-04T02:55:41.026Z,46.01
2018-05-04T02:58:14.336Z,45.68
2018-05-04T03:00:48.204Z,45.57
2018-05-04T03:03:21.544Z,46.12
2018-05-04T03:05:59.490Z,46.41
2018-05-04T03:08:34.125Z,45.70
2018-05-04T03:11:07.780Z,45.94
2018-05-04T03:13:42.829Z,45.76
2018-05-04T03:16:17.122Z,45.02
2018-05-04T03:18:51.119Z,45.21
2018-05-04T03:21:24.676Z,45.16
2018-05-04T03:24:00.361Z,45.13
2018-05-04T03:26:34.051Z,45.01
2018-05-04T03:29:09.756Z,44.86
2018-05-04T03:31:45.901Z,45.39
2018-05-04T03:34:21.640Z,45.11
2018-05-04T03:36:57.339Z,45.30
2018-05-04T03:39:31.115Z,44.70
2018-05-04T03:42:05.017Z,44.42
2018-05-04T03:44:38.384Z,44.63
2018-05-04T03:47:15.294Z,44.34
2018-05-04T03:49:49.040Z,44.71
2018-05-04T03:52:22.379Z,44.16
2018-05-04T03:54:56.374Z,44.77
2018-05-04T03:57:40.482Z,44.44
2018-05-04T04:02:26.944Z,44.43
2018-05-04T04:05:02.370Z,44.79
2018-05-04T04:07:35.833Z,44.52
2018-05-04T04:10:09.635Z,44.50
2018-05-04T04:12:45.210Z,44.28
2018-05-04T04:15:18.616Z,44.02
2018-05-04T04:17:54.470Z,44.15
2018-05-04T04:20:28.024Z,43.66
2018-05-04T04:23:01.341Z,43.54
2018-05-04T04:25:36.707Z,43.93
2018-05-04T04:28:11.272Z,43.78
2018-05-04T04:30:45.022Z,44.26
2018-05-04T04:33:19.057Z,43.67
2018-05-04T04:35:52.799Z,42.89
2018-05-04T04:38:28.499Z,42.78
2018-05-04T04:41:02.862Z,42.79
2018-05-04T04:43:36.348Z,42.48
2018-05-04T04:46:13.869Z,42.28
2018-05-04T04:49:51.889Z,41.67
2018-05-04T04:52:25.167Z,41.72
2018-05-04T04:54:58.530Z,41.33
2018-05-04T04:57:34.673Z,41.05
2018-05-04T05:00:10.367Z,40.35
2018-05-04T05:02:47.586Z,40.09
2018-05-04T05:05:22.275Z,40.09
2018-05-04T05:10:36.768Z,39.74
2018-05-04T05:13:15.724Z,39.51
2018-05-04T05:18:20.053Z,39.49
2018-05-04T05:21:00.017Z,39.27
2018-05-04T05:23:38.485Z,38.90
2018-05-04T05:26:13.348Z,39.26
2018-05-04T05:28:47.120Z,40.00
2018-05-04T05:31:29.540Z,38.67
2018-05-04T05:34:06.398Z,39.08
2018-05-04T05:36:40.437Z,38.73
2018-05-04T05:39:14.546Z,38.89
2018-05-04T05:41:48.221Z,39.26
2018-05-04T05:44:23.088Z,39.76
2018-05-04T05:46:57.628Z,39.42
2018-05-04T05:49:31.063Z,39.01
2018-05-04T05:52:05.074Z,38.74
2018-05-04T05:54:38.579Z,38.54
2018-05-04T05:57:11.993Z,39.64
2018-05-04T05:59:45.777Z,39.34
2018-05-04T06:02:24.893Z,39.58
2018-05-04T06:05:03.451Z,39.77
2018-05-04T06:07:37.829Z,38.97
2018-05-04T06:10:13.543Z,38.44
2018-05-04T06:12:50.786Z,39.55
2018-05-04T06:15:26.035Z,39.92
2018-05-04T06:18:05.080Z,39.25
2018-05-04T06:20:38.733Z,38.88
2018-05-04T06:23:12.812Z,39.60
2018-05-04T06:25:47.779Z,39.09
2018-05-04T06:28:23.763Z,39.76
2018-05-04T06:30:57.793Z,40.42
2018-05-04T06:33:31.891Z,40.10
2018-05-04T06:36:06.481Z,39.37
2018-05-04T06:38:40.576Z,40.06
2018-05-04T06:41:14.276Z,39.84
2018-05-04T06:43:51.676Z,39.70
2018-05-04T06:46:26.439Z,39.27
2018-05-04T06:49:01.933Z,40.07
2018-05-04T06:51:36.603Z,40.57
2018-05-04T06:54:10.678Z,39.86
2018-05-04T06:56:47.973Z,40.13
2018-05-04T06:59:21.542Z,39.86
2018-05-04T07:01:55.722Z,39.21
2018-05-04T07:04:32.153Z,39.15
2018-05-04T07:07:06.756Z,39.38
2018-05-04T07:09:44.503Z,39.08
2018-05-04T07:12:21.123Z,39.28
2018-05-04T07:14:54.953Z,39.07
2018-05-04T07:17:28.632Z,39.41
2018-05-04T07:20:04.137Z,39.61
2018-05-04T07:22:38.117Z,39.46
2018-05-04T07:25:12.340Z,38.74
2018-05-04T07:27:46.322Z,38.81
2018-05-04T07:30:22.193Z,39.65
2018-05-04T07:32:57.723Z,39.60
2018-05-04T07:35:33.604Z,39.51
2018-05-04T07:38:10.251Z,38.91
2018-05-04T07:40:44.986Z,38.59
2018-05-04T07:43:18.661Z,38.33
2018-05-04T07:45:52.348Z,38.94
2018-05-04T07:48:28.319Z,38.79
2018-05-04T07:51:04.083Z,38.38
2018-05-04T07:53:38.818Z,38.10
2018-05-04T07:56:15.610Z,37.54
2018-05-04T07:58:51.456Z,37.85
2018-05-04T08:01:27.740Z,37.53
2018-05-04T08:04:06.355Z,37.02
2018-05-04T08:06:40.179Z,37.37
2018-05-04T08:09:18.997Z,37.03
2018-05-04T08:11:53.367Z,36.55
2018-05-04T08:14:26.968Z,37.35
2018-05-04T08:17:00.580Z,37.26
2018-05-04T08:19:36.480Z,37.35
2018-05-04T08:22:11.538Z,36.97
2018-05-04T08:24:45.231Z,37.16
2018-05-04T08:27:21.946Z,36.77
2018-05-04T08:29:57.982Z,35.80
2018-05-04T08:32:36.713Z,35.86
2018-05-04T08:35:14.282Z,36.67
2018-05-04T08:37:49.591Z,35.32
2018-05-04T08:40:23.568Z,36.13
2018-05-04T08:42:58.392Z,36.47
2018-05-04T08:45:31.786Z,35.67
2018-05-04T08:48:06.767Z,35.27
2018-05-04T08:50:42.955Z,35.46
2018-05-04T08:53:19.644Z,35.92
2018-05-04T08:55:58.244Z,35.68
2018-05-04T08:58:32.019Z,36.24
2018-05-04T09:01:07.463Z,36.93
2018-05-04T09:03:44.464Z,36.62
2018-05-04T09:06:21.671Z,35.59
2018-05-04T09:08:58.036Z,34.79
2018-05-04T09:11:35.008Z,34.38
2018-05-04T09:14:08.663Z,35.95
2018-05-04T09:16:45.413Z,35.49
2018-05-04T09:19:20.108Z,34.78
2018-05-04T09:21:54.389Z,33.92
2018-05-04T09:24:29.970Z,33.77
2018-05-04T09:27:04.500Z,33.58
2018-05-04T09:29:38.500Z,34.50
2018-05-04T09:32:14.474Z,34.10
2018-05-04T09:34:50.713Z,33.28
2018-05-04T09:37:31.187Z,34.61
2018-05-04T09:40:06.613Z,33.59
2018-05-04T09:42:40.684Z,33.25
2018-05-04T09:45:14.486Z,33.78
2018-05-04T09:47:48.782Z,34.43
2018-05-04T09:50:22.823Z,34.61
2018-05-04T09:52:56.681Z,34.17
2018-05-04T09:55:30.625Z,34.13
2018-05-04T09:58:05.906Z,34.35
2018-05-04T10:00:44.513Z,33.99
2018-05-04T10:03:18.533Z,34.33
2018-05-04T10:05:53.963Z,33.81
2018-05-04T10:08:31.318Z,34.14
2018-05-04T10:11:04.919Z,35.12
2018-05-04T10:13:39.636Z,34.84
2018-05-04T10:16:15.298Z,34.69
2018-05-04T10:18:54.576Z,33.93
2018-05-04T10:21:30.666Z,35.46
2018-05-04T10:24:11.334Z,34.72
2018-05-04T10:26:48.585Z,34.66
2018-05-04T10:29:39.106Z,35.16
2018-05-04T10:32:32.932Z,33.02
2018-05-04T10:35:10.745Z,32.82
2018-05-04T10:37:48.075Z,32.48
2018-05-04T10:40:29.043Z,31.27
2018-05-04T10:43:04.503Z,31.13
2018-05-04T10:45:39.520Z,31.39
2018-05-04T10:48:17.275Z,30.81
2018-05-04T10:51:04.722Z,30.18
2018-05-04T10:53:40.254Z,30.21
2018-05-04T10:56:30.429Z,31.86
2018-05-04T10:59:20.795Z,30.46
2018-05-04T11:02:08.303Z,31.59
2018-05-04T11:04:47.889Z,31.34
2018-05-04T11:07:22.809Z,30.02
2018-05-04T11:09:59.549Z,29.77
2018-05-04T11:12:43.031Z,30.06
2018-05-04T11:15:18.071Z,29.74
2018-05-04T11:17:56.285Z,30.19
2018-05-04T11:20:33.187Z,30.74
2018-05-04T11:23:11.560Z,29.74
2018-05-04T11:25:46.851Z,30.46
2018-05-04T11:28:29.358Z,30.27
2018-05-04T11:31:06.351Z,30.34
2018-05-04T11:33:51.435Z,30.17
2018-05-04T11:37:01.721Z,30.39
2018-05-04T11:39:40.704Z,31.59
2018-05-04T11:42:16.418Z,30.51
2018-05-04T11:44:53.264Z,30.83
2018-05-04T11:47:30.377Z,30.72
2018-05-04T11:50:07.733Z,31.47
2018-05-04T11:52:43.828Z,32.02
2018-05-04T11:55:20.105Z,30.89
2018-05-04T11:57:54.288Z,30.48
2018-05-04T12:00:28.032Z,30.53
2018-05-04T12:03:02.088Z,30.87
2018-05-04T12:05:35.673Z,31.43
2018-05-04T12:08:11.700Z,30.12
2018-05-04T12:10:47.584Z,29.23
2018-05-04T12:13:23.316Z,30.39
2018-05-04T12:15:56.995Z,30.19
2018-05-04T12:18:30.775Z,29.43
2018-05-04T12:21:05.509Z,29.62
2018-05-04T12:23:41.981Z,30.35
2018-05-04T12:26:17.034Z,30.62
2018-05-04T12:28:50.906Z,30.06
2018-05-04T12:31:27.612Z,29.67
2018-05-04T12:34:03.860Z,30.77
2018-05-04T12:36:37.509Z,30.93
2018-05-04T12:39:13.481Z,30.75
2018-05-04T12:41:49.168Z,30.97
2018-05-04T12:44:25.251Z,29.97
2018-05-04T12:47:02.696Z,30.46
2018-05-04T12:49:37.338Z,31.00
2018-05-04T12:52:13.564Z,30.46
2018-05-04T12:54:47.268Z,30.46
2018-05-04T12:57:23.334Z,30.23
2018-05-04T12:59:58.462Z,32.09
2018-05-04T13:02:33.040Z,30.74
2018-05-04T13:05:08.748Z,31.27
2018-05-04T13:07:45.332Z,30.62
2018-05-04T13:10:19.760Z,30.23
2018-05-04T13:12:53.312Z,31.12
2018-05-04T13:15:29.471Z,31.91
2018-05-04T13:18:05.737Z,31.63
2018-05-04T13:20:39.179Z,31.94
2018-05-04T13:23:13.091Z,32.30
2018-05-04T13:25:48.930Z,30.72
2018-05-04T13:28:22.400Z,31.25
2018-05-04T13:30:57.871Z,31.71
2018-05-04T13:33:31.990Z,31.04
2018-05-04T13:36:22.996Z,31.49
2018-05-04T13:39:04.851Z,31.47
2018-05-04T13:41:44.095Z,30.80
2018-05-04T13:44:24.107Z,30.64
2018-05-04T13:46:59.291Z,30.49
2018-05-04T13:49:45.307Z,30.77
2018-05-04T13:52:19.666Z,30.39
2018-05-04T13:54:53.556Z,30.96
2018-05-04T13:57:27.448Z,30.60
2018-05-04T14:00:05.124Z,30.66
2018-05-04T14:02:40.479Z,30.69
2018-05-04T14:05:14.349Z,30.85
2018-05-04T14:07:50.943Z,30.77
2018-05-04T14:10:32.127Z,30.84
2018-05-04T14:13:09.616Z,30.20
2018-05-04T14:15:45.340Z,30.53
2018-05-04T14:18:24.423Z,30.16
2018-05-04T14:21:06.873Z,31.20
2018-05-04T14:23:43.332Z,30.33
2018-05-04T14:26:17.534Z,32.27
2018-05-04T14:28:59.118Z,30.80
2018-05-04T14:31:42.666Z,30.71
2018-05-04T14:34:17.197Z,31.12
2018-05-04T14:36:53.614Z,31.02
2018-05-04T14:39:27.624Z,31.98
2018-05-04T14:42:07.004Z,32.10
2018-05-04T14:44:43.322Z,32.60
2018-05-04T14:47:20.975Z,32.14
2018-05-04T14:49:55.053Z,31.91
2018-05-04T14:52:30.708Z,32.07
2018-05-04T14:55:07.031Z,32.79
2018-05-04T14:57:45.361Z,32.84
2018-05-04T15:02:57.578Z,33.08
2018-05-04T15:05:32.733Z,32.99
2018-05-04T15:08:06.343Z,33.14
2018-05-04T15:10:44.819Z,32.57
2018-05-04T15:13:19.524Z,32.34
2018-05-04T15:15:57.357Z,31.91
2018-05-04T15:18:32.267Z,32.74
2018-05-04T15:21:06.256Z,33.00
2018-05-04T15:23:42.255Z,33.00
2018-05-04T15:29:05.512Z,32.62
2018-05-04T15:31:40.023Z,33.07
2018-05-04T15:34:32.753Z,33.48
2018-05-04T15:37:10.646Z,33.21
2018-05-04T15:39:47.167Z,33.04
2018-05-04T15:42:21.240Z,33.22
2018-05-04T15:44:56.741Z,33.29
2018-05-04T15:47:32.083Z,33.42
2018-05-04T15:50:10.731Z,33.32
2018-05-04T15:52:45.612Z,33.76
2018-05-04T15:55:22.507Z,33.84
2018-05-04T15:57:55.974Z,33.28
2018-05-04T16:00:30.995Z,32.31
2018-05-04T16:03:10.164Z,32.22
2018-05-04T16:05:43.916Z,32.35
2018-05-04T16:08:18.881Z,32.08
2018-05-04T16:10:55.261Z,31.68
2018-05-04T16:13:29.145Z,32.11
2018-05-04T16:16:06.098Z,32.12
2018-05-04T16:18:41.495Z,32.28
2018-05-04T16:21:16.179Z,32.48
2018-05-04T16:23:52.735Z,32.58
2018-05-04T16:26:26.686Z,32.16
2018-05-04T16:29:01.495Z,32.43
2018-05-04T16:31:36.896Z,32.71
2018-05-04T16:34:11.111Z,33.54
2018-05-04T16:36:44.680Z,33.61
2018-05-04T16:39:19.594Z,33.65
2018-05-04T16:41:54.168Z,33.63
2018-05-04T16:44:27.734Z,33.96
2018-05-04T16:47:07.233Z,33.88
2018-05-04T16:49:42.598Z,33.85
2018-05-04T16:52:19.063Z,34.36
2018-05-04T16:54:53.187Z,34.54
2018-05-04T16:57:31.639Z,35.18
2018-05-04T17:00:10.738Z,35.16
2018-05-04T17:02:44.572Z,35.96
2018-05-04T17:05:18.381Z,35.93
2018-05-04T17:07:52.755Z,35.98
2018-05-04T17:10:26.261Z,36.13
2018-05-04T17:13:01.318Z,36.39
2018-05-04T17:15:35.072Z,36.37
2018-05-04T17:18:12.474Z,36.35
2018-05-04T17:20:48.242Z,36.42
2018-05-04T17:25:48.553Z,36.53
2018-05-04T17:28:25.225Z,36.48
2018-05-04T17:31:01.943Z,36.93
2018-05-04T17:33:36.641Z,37.28
2018-05-04T17:36:12.322Z,37.14
2018-05-04T17:38:47.235Z,37.45
2018-05-04T17:41:20.979Z,37.79
2018-05-04T17:43:55.111Z,37.48
2018-05-04T17:46:28.567Z,37.67
2018-05-04T17:49:03.512Z,37.63
2018-05-04T17:51:39.654Z,38.07
2018-05-04T17:54:13.256Z,38.54
2018-05-04T17:56:46.737Z,38.47
2018-05-04T17:59:21.117Z,39.15
2018-05-04T18:01:54.725Z,40.23
2018-05-04T18:04:28.756Z,42.30
2018-05-04T18:07:02.587Z,43.43
2018-05-04T18:09:36.136Z,42.53
2018-05-04T18:12:11.796Z,42.79
2018-05-04T18:14:47.743Z,42.93
2018-05-04T18:17:23.766Z,42.90
2018-05-04T18:19:58.521Z,43.05
2018-05-04T18:22:33.337Z,42.74
2018-05-04T18:25:07.419Z,44.52
2018-05-04T18:27:41.092Z,45.60
2018-05-04T18:30:16.192Z,47.10
2018-05-04T18:32:55.052Z,47.79
2018-05-04T18:35:29.619Z,48.60
2018-05-04T18:38:03.392Z,49.25
2018-05-04T18:40:39.669Z,50.41
2018-05-04T18:43:15.781Z,50.21
2018-05-04T18:45:55.695Z,51.03
2018-05-04T18:48:30.522Z,51.80
2018-05-04T18:51:04.657Z,51.68
2018-05-04T18:53:40.025Z,51.74
2018-05-04T18:56:14.405Z,52.48
2018-05-04T18:58:51.909Z,52.48
2018-05-04T19:01:28.133Z,52.84
2018-05-04T19:04:04.595Z,53.13
2018-05-04T19:06:41.084Z,52.82
2018-05-04T19:09:14.755Z,52.64
2018-05-04T19:11:48.244Z,53.02
2018-05-04T19:14:22.704Z,53.47
2018-05-04T19:16:58.794Z,53.83
2018-05-04T19:19:35.106Z,53.90
2018-05-04T19:22:08.685Z,53.94
2018-05-04T19:24:42.116Z,54.35
2018-05-04T19:27:16.100Z,54.35
2018-05-04T19:29:54.207Z,54.43
2018-05-04T19:32:27.975Z,54.42
2018-05-04T19:35:02.121Z,54.66
2018-05-04T19:37:37.676Z,54.98
2018-05-04T19:40:11.954Z,55.25
2018-05-04T19:42:45.861Z,55.41
2018-05-04T19:45:20.846Z,55.48
2018-05-04T19:47:55.684Z,55.98
2018-05-04T19:50:31.212Z,56.43
2018-05-04T19:53:06.901Z,56.66
2018-05-04T19:55:40.458Z,56.76
2018-05-04T19:58:14.772Z,56.93
2018-05-04T20:00:50.351Z,57.10
2018-05-04T20:03:23.788Z,57.28
2018-05-04T20:05:57.709Z,57.36
2018-05-04T20:08:32.180Z,57.40
2018-05-04T20:11:07.991Z,57.60
2018-05-04T20:13:44.347Z,58.01
2018-05-04T20:16:17.925Z,58.29
2018-05-04T20:18:53.387Z,58.60
2018-05-04T20:21:27.289Z,58.44
2018-05-04T20:24:02.323Z,58.96
2018-05-04T20:26:35.709Z,59.09
2018-05-04T20:29:12.007Z,59.34
2018-05-04T20:31:48.596Z,59.68
2018-05-04T20:34:24.891Z,59.93
2018-05-04T20:37:00.469Z,59.73
2018-05-04T20:39:37.924Z,60.01
2018-05-04T20:42:15.331Z,60.38
2018-05-04T20:44:49.441Z,60.68
2018-05-04T20:47:25.071Z,60.67
2018-05-04T20:49:58.796Z,61.05
2018-05-04T20:52:33.111Z,61.33
2018-05-04T20:55:11.983Z,61.60
2018-05-04T20:57:47.361Z,61.76
2018-05-04T21:00:21.003Z,62.22
2018-05-04T21:02:57.310Z,62.73
2018-05-04T21:05:33.383Z,62.87
2018-05-04T21:08:07.285Z,62.96
2018-05-04T21:10:40.775Z,62.75
2018-05-04T21:13:14.413Z,63.00
2018-05-04T21:15:49.237Z,63.13
2018-05-04T21:18:24.374Z,63.47
2018-05-04T21:20:58.324Z,63.72
2018-05-04T21:23:31.939Z,64.02
2018-05-04T21:26:06.152Z,63.83
2018-05-04T21:28:39.737Z,63.94
2018-05-04T21:31:13.159Z,64.19
2018-05-04T21:33:46.627Z,64.06
2018-05-04T21:36:22.399Z,64.29
2018-05-04T21:38:59.395Z,64.67
2018-05-04T21:41:35.419Z,64.76
2018-05-04T21:44:11.491Z,65.25
2018-05-04T21:46:44.877Z,65.42
2018-05-04T21:49:18.324Z,65.38
2018-05-04T21:51:53.840Z,65.31
2018-05-04T21:54:29.948Z,64.99
2018-05-04T21:57:05.547Z,64.84
2018-05-04T21:59:39.313Z,64.95
2018-05-04T22:02:13.042Z,65.55
2018-05-04T22:04:46.512Z,66.28
2018-05-04T22:07:20.444Z,65.83
2018-05-04T22:09:55.892Z,65.79
2018-05-04T22:12:29.552Z,65.66
2018-05-04T22:15:04.034Z,66.03
2018-05-04T22:17:37.884Z,66.21
2018-05-04T22:20:13.158Z,66.34
2018-05-04T22:22:47.206Z,66.57
2018-05-04T22:25:20.801Z,66.70
2018-05-04T22:27:56.723Z,66.13
2018-05-04T22:30:35.047Z,66.97
2018-05-04T22:33:08.500Z,66.89
2018-05-04T22:35:42.095Z,67.29
2018-05-04T22:38:16.065Z,66.90
2018-05-04T22:40:50.296Z,66.70
2018-05-04T22:43:23.901Z,66.97
2018-05-04T22:45:58.789Z,67.25
2018-05-04T22:48:32.225Z,67.51
2018-05-04T22:51:05.589Z,67.55
2018-05-04T22:53:40.612Z,67.29
2018-05-04T22:56:14.041Z,66.90
2018-05-04T22:58:47.426Z,67.48
2018-05-04T23:01:21.843Z,67.56
2018-05-04T23:03:55.320Z,67.74
2018-05-04T23:06:28.907Z,68.01
2018-05-04T23:09:02.745Z,68.24
2018-05-04T23:11:36.207Z,67.84
2018-05-04T23:14:09.991Z,68.12
2018-05-04T23:16:43.554Z,68.16
2018-05-04T23:19:16.988Z,68.39
2018-05-04T23:21:50.416Z,68.52
2018-05-04T23:24:24.035Z,68.88
2018-05-04T23:26:57.436Z,69.09
2018-05-04T23:29:30.807Z,69.07
2018-05-04T23:32:04.616Z,69.10
2018-05-04T23:34:39.283Z,68.36
2018-05-04T23:37:13.861Z,67.95
2018-05-04T23:39:47.321Z,68.80
2018-05-04T23:42:20.811Z,69.07
2018-05-04T23:44:54.190Z,69.24
2018-05-04T23:47:29.050Z,69.69
2018-05-04T23:50:02.924Z,69.58
2018-05-04T23:52:36.465Z,69.53
2018-05-04T23:55:10.093Z,70.12
2018-05-04T23:57:43.791Z,69.96
